Capitol Logistics 1125


UBBB
Heydar Aliyev International Airport
Baku, AZ
EHAM
Schiphol International Airport
Amsterdam, NL

Activity Log

Date Flight Route Aircraft Duration
03/22/2020 CPX1125 UBBB/34 EKRA2B EKRAM Y124 ABTEK N43 BUMAR B494 OLGIN M991 NIROV N191 USTIL L980 RKN RKN2A EHAM/ARTIP.I06 B763 5h 19m

Route Details

Aircraft Information
Primary: Boeing 767-300BDSF
Backup: Not Available
Route Data
Distance: 1972nm
Sched. Duration: 5h 04m
Avg. Duration: 5h 19m (+14m)
Times Flown: 1
Recm'd Route: Not Available
Planned Altitude: 34,000ft
Origin Wx: UBBB 312200Z 20006KT 5000 BR NSC 18/17 Q1011 R88/CLRD// NOSIG
Dest. Wx: EHAM 312225Z 22008KT 9999 FEW045 10/08 Q1012 NOSIG
Notes:

Financial History
Total Freight: 47,342lbs
Average Load: 47,342lbs/flt
Fuel Used: 48,565lbs
Avg. Fuel Used: 48,565lbs/flt
Fuel Expense: $38,852
Avg. Fuel Expense: $38,852
Avg. Fuel Cost: $0.80/lbs
Total Gross Income: $171,851
Pilot Pay: $259
Total Expenses: $18,612
Total Revenue: $112,904
Average Revenue: $171,851.45